createdAt,value
2017-09-02T00:00:34.299Z,3.90
2017-09-02T00:03:01.680Z,4.50
2017-09-02T00:08:02.803Z,3.73
2017-09-02T00:10:30.185Z,4.50
2017-09-02T00:12:57.580Z,4.77
2017-09-02T00:15:24.961Z,4.83
2017-09-02T00:17:52.369Z,3.90
2017-09-02T00:20:19.750Z,4.30
2017-09-02T00:22:47.158Z,5.60
2017-09-02T00:25:14.543Z,4.57
2017-09-02T00:27:41.943Z,4.90
2017-09-02T00:30:09.337Z,3.70
2017-09-02T00:32:36.727Z,5.13
2017-09-02T00:35:04.115Z,4.33
2017-09-02T00:37:31.508Z,5.13
2017-09-02T00:39:58.897Z,4.27
2017-09-02T00:42:26.290Z,4.50
2017-09-02T00:44:53.682Z,4.13
2017-09-02T00:47:21.078Z,3.60
2017-09-02T00:49:48.466Z,4.50
2017-09-02T00:52:15.865Z,3.83
2017-09-02T00:54:43.243Z,3.70
2017-09-02T00:57:10.647Z,5.03
2017-09-02T00:59:38.038Z,4.17
2017-09-02T01:02:05.438Z,3.53
2017-09-02T01:04:32.842Z,4.07
2017-09-02T01:07:00.238Z,3.40
2017-09-02T01:09:27.622Z,3.97
2017-09-02T01:11:55.016Z,4.47
2017-09-02T01:14:22.406Z,3.93
2017-09-02T01:16:49.806Z,4.13
2017-09-02T01:19:17.195Z,3.80
2017-09-02T01:21:44.582Z,3.90
2017-09-02T01:24:11.977Z,3.97
2017-09-02T01:26:39.356Z,3.83
2017-09-02T01:29:06.747Z,4.33
2017-09-02T01:31:34.155Z,4.17
2017-09-02T01:34:01.547Z,3.80
2017-09-02T01:36:28.927Z,3.80
2017-09-02T01:38:56.319Z,3.30
2017-09-02T01:41:23.704Z,4.00
2017-09-02T01:43:51.091Z,4.30
2017-09-02T01:46:18.478Z,3.80
2017-09-02T01:48:45.876Z,4.17
2017-09-02T01:51:13.307Z,4.53
2017-09-02T01:53:40.715Z,3.70
2017-09-02T01:56:08.100Z,3.77
2017-09-02T01:58:35.501Z,3.67
2017-09-02T02:01:02.890Z,4.00
2017-09-02T02:03:30.315Z,3.83
2017-09-02T02:05:57.689Z,4.37
2017-09-02T02:08:25.091Z,3.80
2017-09-02T02:10:52.483Z,3.87
2017-09-02T02:13:19.870Z,3.70
2017-09-02T02:15:47.262Z,3.90
2017-09-02T02:18:14.646Z,4.10
2017-09-02T02:20:42.046Z,4.00
2017-09-02T02:23:09.431Z,4.37
2017-09-02T02:25:36.834Z,3.97
2017-09-02T02:28:04.219Z,3.60
2017-09-02T02:30:31.619Z,4.47
2017-09-02T02:32:59.003Z,3.00
2017-09-02T02:35:26.399Z,4.87
2017-09-02T02:37:53.787Z,3.60
2017-09-02T02:40:21.178Z,3.40
2017-09-02T02:42:48.570Z,4.23
2017-09-02T02:45:15.974Z,4.03
2017-09-02T02:47:43.356Z,3.90
2017-09-02T02:50:10.742Z,4.10
2017-09-02T02:52:38.164Z,3.80
2017-09-02T02:55:05.547Z,3.97
2017-09-02T02:57:32.955Z,3.30
2017-09-02T03:00:00.335Z,4.00
2017-09-02T03:02:27.727Z,4.33
2017-09-02T03:04:55.127Z,4.50
2017-09-02T03:07:22.526Z,4.50
2017-09-02T03:09:49.914Z,4.17
2017-09-02T03:12:17.301Z,3.67
2017-09-02T03:14:44.683Z,4.00
2017-09-02T03:17:12.079Z,3.70
2017-09-02T03:19:39.482Z,4.07
2017-09-02T03:22:06.868Z,4.20
2017-09-02T03:24:34.257Z,4.03
2017-09-02T03:27:01.650Z,3.80
2017-09-02T03:29:29.036Z,3.87
2017-09-02T03:31:56.434Z,3.67
2017-09-02T03:34:23.818Z,3.90
2017-09-02T03:36:51.215Z,4.00
2017-09-02T03:39:18.606Z,3.83
2017-09-02T03:41:45.999Z,4.20
2017-09-02T03:44:13.382Z,4.33
2017-09-02T03:46:40.773Z,4.43
2017-09-02T03:49:08.158Z,4.83
2017-09-02T03:51:35.576Z,4.43
2017-09-02T03:54:02.955Z,4.40
2017-09-02T03:56:30.342Z,4.03
2017-09-02T03:58:58.070Z,3.67
2017-09-02T04:01:25.462Z,3.63
2017-09-02T04:03:52.851Z,4.60
2017-09-02T04:06:20.271Z,4.53
2017-09-02T04:08:47.651Z,4.00
2017-09-02T04:11:15.048Z,4.20
2017-09-02T04:13:42.471Z,4.20
2017-09-02T04:16:09.856Z,4.10
2017-09-02T04:18:37.250Z,4.20
2017-09-02T04:21:04.635Z,3.43
2017-09-02T04:23:32.026Z,3.77
2017-09-02T04:25:59.415Z,5.00
2017-09-02T04:28:26.807Z,3.63
2017-09-02T04:30:54.191Z,4.00
2017-09-02T04:33:21.579Z,3.70
2017-09-02T04:35:48.972Z,4.03
2017-09-02T04:38:16.411Z,4.73
2017-09-02T04:40:43.814Z,4.63
2017-09-02T04:43:11.473Z,4.00
2017-09-02T04:45:38.872Z,4.20
2017-09-02T04:48:06.256Z,4.37
2017-09-02T04:50:33.647Z,5.47
2017-09-02T04:53:01.039Z,5.13
2017-09-02T04:55:28.430Z,4.63
2017-09-02T04:57:56.111Z,4.20
2017-09-02T05:00:23.510Z,5.37
2017-09-02T05:02:50.895Z,4.97
2017-09-02T05:05:18.291Z,4.33
2017-09-02T05:07:45.938Z,4.67
2017-09-02T05:10:13.326Z,5.47
2017-09-02T05:12:40.706Z,4.80
2017-09-02T05:15:08.105Z,4.70
2017-09-02T05:17:35.493Z,6.17
2017-09-02T05:20:03.114Z,5.90
2017-09-02T05:22:30.506Z,4.87
2017-09-02T05:24:57.907Z,5.40
2017-09-02T05:27:25.291Z,5.77
2017-09-02T05:29:52.711Z,5.40
2017-09-02T05:32:20.107Z,5.17
2017-09-02T05:34:47.490Z,6.13
2017-09-02T05:37:14.939Z,5.93
2017-09-02T05:39:42.315Z,6.60
2017-09-02T05:44:42.408Z,5.93
2017-09-02T05:47:09.802Z,5.70
2017-09-02T05:49:37.197Z,7.50
2017-09-02T05:52:04.595Z,7.40
2017-09-02T05:54:31.988Z,7.53
2017-09-02T05:56:59.386Z,7.17
2017-09-02T05:59:26.779Z,6.70
2017-09-02T06:01:54.189Z,7.10
2017-09-02T06:04:21.579Z,6.70
2017-09-02T06:06:48.974Z,8.00
2017-09-02T06:09:16.366Z,6.00
2017-09-02T06:11:43.771Z,7.80
2017-09-02T06:14:11.174Z,7.27
2017-09-02T06:16:38.564Z,7.30
2017-09-02T06:19:05.959Z,7.87
2017-09-02T06:21:33.358Z,7.57
2017-09-02T06:24:00.780Z,8.77
2017-09-02T06:26:28.183Z,8.00
2017-09-02T06:28:55.566Z,8.00
2017-09-02T06:31:22.975Z,6.20
2017-09-02T06:33:50.367Z,7.77
2017-09-02T06:36:17.776Z,7.30
2017-09-02T06:38:45.167Z,7.70
2017-09-02T06:41:12.555Z,7.00
2017-09-02T06:43:39.951Z,8.37
2017-09-02T06:46:07.343Z,7.93
2017-09-02T06:48:34.749Z,8.50
2017-09-02T06:51:02.157Z,7.83
2017-09-02T06:53:29.849Z,7.20
2017-09-02T06:55:57.265Z,8.20
2017-09-02T06:58:24.678Z,7.60
2017-09-02T07:00:52.071Z,7.33
2017-09-02T07:03:19.464Z,7.60
2017-09-02T07:05:46.870Z,6.93
2017-09-02T07:08:14.267Z,6.90
2017-09-02T07:10:41.669Z,8.10
2017-09-02T07:13:09.302Z,7.40
2017-09-02T07:15:36.693Z,8.23
2017-09-02T07:18:04.087Z,7.30
2017-09-02T07:20:31.530Z,7.73
2017-09-02T07:22:58.930Z,7.77
2017-09-02T07:25:26.582Z,7.70
2017-09-02T07:27:53.975Z,7.80
2017-09-02T07:30:21.598Z,7.40
2017-09-02T07:32:48.996Z,7.50
2017-09-02T07:35:16.379Z,7.00
2017-09-02T07:37:43.782Z,5.93
2017-09-02T07:40:11.162Z,6.63
2017-09-02T07:42:38.564Z,7.90
2017-09-02T07:45:05.958Z,6.80
2017-09-02T07:47:33.358Z,7.00
2017-09-02T07:50:00.748Z,6.60
2017-09-02T07:52:28.138Z,6.40
2017-09-02T07:54:55.538Z,5.47
2017-09-02T07:57:22.945Z,6.40
2017-09-02T07:59:50.322Z,5.20
2017-09-02T08:02:17.706Z,4.77
2017-09-02T08:04:45.106Z,5.27
2017-09-02T08:07:12.790Z,5.20
2017-09-02T08:09:40.186Z,5.43
2017-09-02T08:12:07.580Z,4.47
2017-09-02T08:14:34.970Z,3.77
2017-09-02T08:17:02.355Z,4.20
2017-09-02T08:19:29.783Z,4.10
2017-09-02T08:21:57.179Z,4.90
2017-09-02T08:24:24.570Z,4.57
2017-09-02T08:26:51.962Z,4.20
2017-09-02T08:29:19.357Z,3.40
2017-09-02T08:31:46.743Z,3.70
2017-09-02T08:34:14.134Z,4.57
2017-09-02T08:36:41.536Z,5.60
2017-09-02T08:39:08.930Z,4.43
2017-09-02T08:41:36.330Z,3.50
2017-09-02T08:44:03.967Z,4.30
2017-09-02T08:46:31.346Z,3.93
2017-09-02T08:48:58.738Z,2.83
2017-09-02T08:51:26.141Z,3.17
2017-09-02T08:53:53.535Z,4.03
2017-09-02T08:56:20.943Z,3.90
2017-09-02T08:58:48.332Z,3.00
2017-09-02T09:01:15.741Z,3.20
2017-09-02T09:03:43.106Z,3.73
2017-09-02T09:06:10.504Z,2.43
2017-09-02T09:08:37.882Z,3.57
2017-09-02T09:11:05.288Z,2.47
2017-09-02T09:13:32.664Z,2.70
2017-09-02T09:16:00.619Z,3.50
2017-09-02T09:18:28.004Z,2.80
2017-09-02T09:20:55.403Z,3.03
2017-09-02T09:23:22.783Z,4.03
2017-09-02T09:25:50.187Z,3.53
2017-09-02T09:28:17.575Z,2.83
2017-09-02T09:30:44.972Z,2.20
2017-09-02T09:33:12.355Z,2.53
2017-09-02T09:35:39.749Z,2.70
2017-09-02T09:38:07.132Z,2.30
2017-09-02T09:40:34.555Z,2.50
2017-09-02T09:43:01.937Z,2.30
2017-09-02T09:45:29.330Z,2.10
2017-09-02T09:47:56.723Z,2.20
2017-09-02T09:50:24.114Z,2.03
2017-09-02T09:52:51.499Z,2.20
2017-09-02T09:55:18.890Z,2.30
2017-09-02T09:57:46.279Z,2.03
2017-09-02T10:00:13.682Z,1.70
2017-09-02T10:02:41.064Z,2.00
2017-09-02T10:05:08.649Z,1.80
2017-09-02T10:07:36.014Z,2.70
2017-09-02T10:10:03.417Z,2.20
2017-09-02T10:12:30.823Z,2.40
2017-09-02T10:14:58.226Z,1.80
2017-09-02T10:17:25.606Z,2.20
2017-09-02T10:19:53.012Z,1.77
2017-09-02T10:22:20.394Z,1.60
2017-09-02T10:24:47.786Z,1.73
2017-09-02T10:27:15.166Z,1.87
2017-09-02T10:29:42.550Z,1.70
2017-09-02T10:32:09.972Z,1.77
2017-09-02T10:34:37.327Z,1.30
2017-09-02T10:37:04.723Z,1.63
2017-09-02T10:39:32.115Z,2.73
2017-09-02T10:41:59.508Z,2.10
2017-09-02T10:44:26.898Z,1.50
2017-09-02T10:46:54.291Z,2.20
2017-09-02T10:49:21.677Z,2.10
2017-09-02T10:51:49.071Z,1.83
2017-09-02T10:54:16.455Z,1.73
2017-09-02T10:56:43.853Z,1.53
2017-09-02T10:59:11.523Z,1.77
2017-09-02T11:01:38.926Z,1.83
2017-09-02T11:04:06.305Z,2.03
2017-09-02T11:06:33.691Z,1.33
2017-09-02T11:09:01.091Z,1.30
2017-09-02T11:11:28.470Z,1.40
2017-09-02T11:13:55.854Z,1.23
2017-09-02T11:16:23.268Z,1.23
2017-09-02T11:18:50.647Z,1.50
2017-09-02T11:21:18.039Z,1.50
2017-09-02T11:23:45.436Z,1.40
2017-09-02T11:26:12.830Z,1.73
2017-09-02T11:28:40.246Z,1.40
2017-09-02T11:31:07.630Z,2.17
2017-09-02T11:33:35.032Z,1.67
2017-09-02T11:36:02.658Z,1.50
2017-09-02T11:38:30.051Z,1.70
2017-09-02T11:40:57.435Z,1.60
2017-09-02T11:43:24.822Z,1.97
2017-09-02T11:45:52.210Z,1.33
2017-09-02T11:48:19.599Z,1.40
2017-09-02T11:50:46.978Z,1.70
2017-09-02T11:53:14.376Z,2.40
2017-09-02T11:55:41.763Z,1.37
2017-09-02T11:58:09.161Z,1.30
2017-09-02T12:00:36.542Z,1.90
2017-09-02T12:03:03.937Z,1.30
2017-09-02T12:05:31.322Z,1.93
2017-09-02T12:07:58.930Z,1.37
2017-09-02T12:10:26.339Z,1.53
2017-09-02T12:12:53.736Z,1.70
2017-09-02T12:15:21.134Z,1.43
2017-09-02T12:17:48.507Z,1.70
2017-09-02T12:20:15.962Z,1.47
2017-09-02T12:22:43.347Z,1.33
2017-09-02T12:25:10.739Z,1.43
2017-09-02T12:27:38.133Z,1.70
2017-09-02T12:30:05.532Z,1.80
2017-09-02T12:32:32.916Z,1.60
2017-09-02T12:35:00.311Z,2.30
2017-09-02T12:37:27.955Z,1.70
2017-09-02T12:39:55.610Z,2.10
2017-09-02T12:42:23.017Z,2.27
2017-09-02T12:44:50.390Z,1.60
2017-09-02T12:47:17.778Z,1.50
2017-09-02T12:49:45.439Z,5.07
2017-09-02T12:52:12.834Z,3.57
2017-09-02T12:54:40.237Z,4.30
2017-09-02T12:57:07.616Z,2.80
2017-09-02T12:59:35.019Z,1.53
2017-09-02T13:02:02.404Z,2.20
2017-09-02T13:04:29.806Z,1.70
2017-09-02T13:06:57.190Z,2.00
2017-09-02T13:09:24.570Z,2.20
2017-09-02T13:11:51.969Z,1.30
2017-09-02T13:14:19.361Z,1.73
2017-09-02T13:16:46.747Z,1.70
2017-09-02T13:19:14.331Z,1.40
2017-09-02T13:21:41.727Z,1.57
2017-09-02T13:24:09.123Z,1.93
2017-09-02T13:26:36.524Z,2.00
2017-09-02T13:29:03.906Z,2.00
2017-09-02T13:31:31.304Z,1.80
2017-09-02T13:33:58.947Z,2.03
2017-09-02T13:36:26.336Z,1.73
2017-09-02T13:38:53.739Z,54.90
2017-09-02T13:41:21.144Z,2.27
2017-09-02T13:43:48.730Z,2.20
2017-09-02T13:46:16.141Z,2.43
2017-09-02T13:48:43.739Z,2.33
2017-09-02T13:51:11.144Z,2.10
2017-09-02T13:53:38.519Z,2.00
2017-09-02T13:56:05.908Z,1.83
2017-09-02T13:58:33.304Z,2.30
2017-09-02T14:01:00.705Z,2.40
2017-09-02T14:03:28.106Z,1.70
2017-09-02T14:05:55.498Z,1.90
2017-09-02T14:08:22.891Z,1.83
2017-09-02T14:10:50.295Z,2.00
2017-09-02T14:13:17.689Z,2.53
2017-09-02T14:47:16.010Z,2.20
2017-09-02T14:49:43.483Z,2.53
2017-09-02T14:52:11.035Z,2.57
2017-09-02T14:54:38.423Z,2.10
2017-09-02T14:57:05.818Z,2.73
2017-09-02T14:59:33.218Z,1.90
2017-09-02T15:02:00.606Z,2.00
2017-09-02T15:04:28.006Z,2.30
2017-09-02T15:06:55.391Z,2.20
2017-09-02T15:09:22.789Z,2.17
2017-09-02T15:11:50.171Z,2.53
2017-09-02T15:14:17.562Z,2.30
2017-09-02T15:16:45.043Z,1.70
2017-09-02T15:19:12.435Z,1.87
2017-09-02T15:21:39.824Z,2.53
2017-09-02T15:24:07.223Z,2.70
2017-09-02T15:26:34.611Z,2.27
2017-09-02T15:29:02.058Z,2.30
2017-09-02T15:31:29.462Z,1.63
2017-09-02T15:33:56.888Z,1.83
2017-09-02T15:36:24.327Z,2.07
2017-09-02T15:38:51.818Z,9.23
2017-09-02T15:41:19.258Z,11.83
2017-09-02T15:43:46.651Z,14.30
2017-09-02T15:46:14.073Z,5.80
2017-09-02T15:48:41.450Z,4.40
2017-09-02T15:51:09.401Z,4.13
2017-09-02T15:53:37.280Z,11.40
2017-09-02T15:56:05.511Z,14.13
2017-09-02T15:58:33.424Z,12.03
2017-09-02T16:01:01.291Z,7.43
2017-09-02T16:03:29.159Z,8.20
2017-09-02T16:05:57.008Z,22.80
2017-09-02T16:08:24.688Z,22.17
2017-09-02T16:10:52.280Z,16.90
2017-09-02T16:13:20.114Z,22.60
2017-09-02T16:15:47.985Z,16.47
2017-09-02T16:18:15.950Z,9.30
2017-09-02T16:20:43.817Z,25.40
2017-09-02T16:23:11.454Z,8.73
2017-09-02T16:25:38.987Z,12.03
2017-09-02T16:28:06.746Z,10.30
2017-09-02T16:30:34.155Z,3.37
2017-09-02T16:33:01.860Z,3.20
2017-09-02T16:35:29.688Z,19.37
2017-09-02T16:37:57.452Z,33.90
2017-09-02T16:40:24.887Z,26.07
2017-09-02T16:42:52.440Z,19.20
2017-09-02T16:45:20.245Z,23.37
2017-09-02T16:47:48.289Z,31.67
2017-09-02T16:50:16.080Z,30.60
2017-09-02T16:52:44.072Z,14.90
2017-09-02T16:55:11.498Z,29.47
2017-09-02T16:57:39.191Z,7.23
2017-09-02T17:00:06.619Z,11.13
2017-09-02T17:02:34.491Z,6.97
2017-09-02T17:05:02.389Z,7.13
2017-09-02T17:07:30.453Z,8.67
2017-09-02T17:09:58.322Z,6.40
2017-09-02T17:12:25.741Z,8.17
2017-09-02T17:14:53.133Z,15.17
2017-09-02T17:17:20.539Z,19.27
2017-09-02T17:19:48.043Z,15.17
2017-09-02T17:22:15.775Z,20.43
2017-09-02T17:24:43.190Z,11.67
2017-09-02T17:27:10.672Z,15.53
2017-09-02T17:29:38.075Z,8.33
2017-09-02T17:32:05.462Z,4.30
2017-09-02T17:34:32.851Z,2.60
2017-09-02T17:37:00.235Z,2.20
2017-09-02T17:39:27.622Z,2.10
2017-09-02T17:41:55.357Z,2.37
2017-09-02T17:44:22.814Z,3.53
2017-09-02T17:46:50.199Z,13.43
2017-09-02T17:49:17.622Z,9.23
2017-09-02T17:51:45.011Z,11.43
2017-09-02T17:54:12.403Z,5.20
2017-09-02T17:56:39.783Z,3.10
2017-09-02T17:59:07.170Z,2.90
2017-09-02T18:01:34.595Z,2.37
2017-09-02T18:04:01.986Z,2.03
2017-09-02T18:06:29.374Z,3.67
2017-09-02T18:08:57.012Z,7.53
2017-09-02T18:11:24.403Z,6.10
2017-09-02T18:13:51.790Z,6.80
2017-09-02T18:16:19.182Z,18.63
2017-09-02T18:18:46.597Z,32.90
2017-09-02T18:21:13.983Z,5.63
2017-09-02T18:23:41.414Z,2.10
2017-09-02T18:26:08.811Z,2.00
2017-09-02T18:28:36.223Z,2.17
2017-09-02T18:31:03.618Z,1.70
2017-09-02T18:33:31.007Z,1.50
2017-09-02T18:35:58.491Z,2.00
2017-09-02T18:38:25.918Z,2.40
2017-09-02T18:40:53.298Z,2.07
2017-09-02T18:43:20.759Z,2.70
2017-09-02T18:45:48.280Z,2.50
2017-09-02T18:48:15.674Z,3.07
2017-09-02T18:50:43.061Z,3.00
2017-09-02T18:53:10.454Z,2.97
2017-09-02T18:55:37.839Z,2.97
2017-09-02T18:58:05.247Z,2.97
2017-09-02T19:00:32.669Z,2.93
2017-09-02T19:03:00.055Z,3.00
2017-09-02T19:05:27.442Z,2.43
2017-09-02T19:07:54.833Z,3.93
2017-09-02T19:10:22.219Z,3.10
2017-09-02T19:12:49.630Z,3.00
2017-09-02T19:15:17.018Z,2.83
2017-09-02T19:17:45.315Z,4.80
2017-09-02T19:20:12.713Z,4.23
2017-09-02T19:22:40.098Z,3.93
2017-09-02T19:25:07.493Z,3.50
2017-09-02T19:27:34.881Z,3.40
2017-09-02T19:30:02.385Z,3.40
2017-09-02T19:32:29.783Z,4.50
2017-09-02T19:34:57.172Z,4.00
2017-09-02T19:37:24.554Z,4.80
2017-09-02T19:42:25.666Z,4.43
2017-09-02T19:44:53.123Z,3.80
2017-09-02T19:47:20.506Z,3.50
2017-09-02T19:49:47.903Z,6.40
2017-09-02T19:52:15.407Z,5.03
2017-09-02T19:54:42.794Z,5.70
2017-09-02T19:57:10.224Z,7.33
2017-09-02T19:59:37.611Z,7.20
2017-09-02T20:02:05.022Z,10.37
2017-09-02T20:04:32.406Z,10.60
2017-09-02T20:06:59.799Z,9.50
2017-09-02T20:09:27.197Z,5.90
2017-09-02T20:11:54.587Z,4.70
2017-09-02T20:14:21.971Z,6.10
2017-09-02T20:16:49.367Z,7.73
2017-09-02T20:19:16.747Z,4.90
2017-09-02T20:21:44.147Z,7.13
2017-09-02T20:24:11.546Z,6.37
2017-09-02T20:26:38.938Z,5.50
2017-09-02T20:29:06.427Z,6.27
2017-09-02T20:31:33.867Z,7.10
2017-09-02T20:34:01.247Z,6.40
2017-09-02T20:36:28.687Z,6.20
2017-09-02T20:38:56.070Z,3.90
2017-09-02T20:41:23.492Z,3.70
2017-09-02T20:43:50.854Z,4.70
2017-09-02T20:46:18.244Z,4.40
2017-09-02T20:48:45.670Z,3.50
2017-09-02T20:51:13.126Z,3.80
2017-09-02T20:53:40.524Z,4.00
2017-09-02T20:56:07.948Z,3.20
2017-09-02T20:58:35.322Z,3.27
2017-09-02T21:01:02.747Z,3.47
2017-09-02T21:03:30.207Z,2.70
2017-09-02T21:05:57.883Z,2.93
2017-09-02T21:08:25.278Z,5.53
2017-09-02T21:10:52.659Z,3.73
2017-09-02T21:13:20.050Z,3.67
2017-09-02T21:15:47.430Z,4.90
2017-09-02T21:18:14.826Z,10.47
2017-09-02T21:20:42.298Z,8.97
2017-09-02T21:23:09.687Z,8.50
2017-09-02T21:25:37.078Z,10.10
2017-09-02T21:28:04.482Z,21.70
2017-09-02T21:30:31.879Z,45.17
2017-09-02T21:32:59.283Z,50.30
2017-09-02T21:35:26.738Z,45.27
2017-09-02T21:37:54.138Z,58.43
2017-09-02T21:40:21.643Z,46.97
2017-09-02T21:42:49.103Z,48.17
2017-09-02T21:45:16.563Z,29.70
2017-09-02T21:47:44.022Z,21.70
2017-09-02T21:50:11.440Z,16.37
2017-09-02T21:52:38.935Z,13.07
2017-09-02T21:55:06.332Z,16.47
2017-09-02T21:57:33.744Z,12.43
2017-09-02T22:00:01.196Z,9.70
2017-09-02T22:02:28.579Z,8.13
2017-09-02T22:04:55.973Z,5.83
2017-09-02T22:07:23.463Z,4.30
2017-09-02T22:09:50.854Z,3.77
2017-09-02T22:12:18.246Z,4.30
2017-09-02T22:14:45.635Z,4.57
2017-09-02T22:17:13.029Z,5.00
2017-09-02T22:19:40.429Z,3.60
2017-09-02T22:22:07.815Z,3.73
2017-09-02T22:24:35.216Z,3.23
2017-09-02T22:27:02.596Z,2.77
2017-09-02T22:29:29.983Z,3.07
2017-09-02T22:31:57.386Z,3.20
2017-09-02T22:34:24.774Z,3.33
2017-09-02T22:36:52.182Z,3.30
2017-09-02T22:39:19.567Z,8.00
2017-09-02T22:41:46.958Z,5.43
2017-09-02T22:44:14.343Z,3.30
2017-09-02T22:46:41.748Z,3.00
2017-09-02T22:49:09.132Z,3.53
2017-09-02T22:51:36.543Z,2.90
2017-09-02T22:54:04.015Z,3.10
2017-09-02T22:56:31.407Z,3.53
2017-09-02T22:58:58.806Z,3.20
2017-09-02T23:01:26.196Z,3.10
2017-09-02T23:03:53.593Z,3.07
2017-09-02T23:06:20.987Z,3.13
2017-09-02T23:08:48.387Z,3.83
2017-09-02T23:11:15.763Z,4.03
2017-09-02T23:13:43.155Z,3.77
2017-09-02T23:16:10.615Z,3.23
2017-09-02T23:18:38.089Z,3.50
2017-09-02T23:21:05.475Z,3.27
2017-09-02T23:23:32.883Z,2.47
2017-09-02T23:26:00.336Z,4.00
2017-09-02T23:28:27.718Z,4.40
2017-09-02T23:30:55.121Z,4.27
2017-09-02T23:33:22.503Z,3.90
2017-09-02T23:35:49.906Z,3.80
2017-09-02T23:38:17.286Z,2.93
2017-09-02T23:40:44.744Z,3.23
2017-09-02T23:43:12.127Z,3.73
2017-09-02T23:45:39.559Z,3.97
2017-09-02T23:48:07.034Z,3.30
2017-09-02T23:50:34.490Z,2.90
2017-09-02T23:53:01.874Z,3.40
2017-09-02T23:55:29.279Z,2.87
2017-09-02T23:57:56.662Z,2.43
